Time;durP1;ratioP1;P1;durP2;ratioP2;P2;SDS_P1;SDS_P2;PMS_P1;PMS_P2;Temp;Humidity;BMP_temperature;BMP_pressure;BME280_temperature;BME280_humidity;BME280_pressure;Samples;Min_cycle;Max_cycle;Signal;HPM_P1;HPM_P2
2023/04/07 03:00:42;;;;;;;14.80;13.50;;;6.40;99.90;;;;;;5733168;23;20584;-76
2023/04/07 03:03:08;;;;;;;12.83;11.73;;;6.50;99.90;;;;;;4916644;29;20206;-76
2023/04/07 03:05:33;;;;;;;12.27;11.10;;;6.50;99.90;;;;;;4899928;29;20183;-76
2023/04/07 03:07:59;;;;;;;14.03;12.70;;;6.50;99.90;;;;;;4917164;29;20197;-76
2023/04/07 03:10:25;;;;;;;15.07;13.50;;;6.50;99.90;;;;;;4916749;29;20270;-76
2023/04/07 03:12:51;;;;;;;16.00;14.70;;;6.50;99.90;;;;;;4900432;29;20194;-75
2023/04/07 03:17:45;;;;;;;14.20;13.00;;;6.50;99.90;;;;;;4895097;29;20204;-76
2023/04/07 03:20:11;;;;;;;13.93;12.73;;;6.60;99.90;;;;;;4892918;29;20217;-76
2023/04/07 03:22:37;;;;;;;18.87;17.37;;;6.60;99.90;;;;;;4903625;29;20222;-76
2023/04/07 03:25:03;;;;;;;19.20;17.67;;;6.60;99.90;;;;;;4899352;29;20301;-76
2023/04/07 03:27:29;;;;;;;18.10;16.63;;;6.60;99.90;;;;;;4898290;29;20215;-75
2023/04/07 03:29:55;;;;;;;19.13;17.53;;;6.70;99.90;;;;;;4876903;29;20779;-76
2023/04/07 03:32:20;;;;;;;18.63;17.03;;;6.70;99.90;;;;;;4879233;29;20228;-75
2023/04/07 03:34:46;;;;;;;16.50;15.10;;;6.70;99.90;;;;;;4862929;29;20264;-75
2023/04/07 03:37:12;;;;;;;16.90;15.37;;;6.70;99.90;;;;;;4862575;29;20261;-75
2023/04/07 03:39:39;;;;;;;17.23;15.77;;;6.80;99.90;;;;;;4880484;29;20207;-74
2023/04/07 03:42:05;;;;;;;17.37;15.87;;;6.80;99.90;;;;;;4872614;29;20199;-75
2023/04/07 03:44:31;;;;;;;16.37;14.90;;;6.80;99.90;;;;;;4876318;29;20188;-75
2023/04/07 03:46:57;;;;;;;17.27;15.97;;;6.80;99.90;;;;;;4877955;29;20280;-75
2023/04/07 03:49:23;;;;;;;18.67;17.07;;;6.90;99.90;;;;;;4883777;29;20190;-75
2023/04/07 03:51:49;;;;;;;20.10;18.57;;;6.80;99.90;;;;;;4881236;29;20282;-74
2023/04/07 03:54:15;;;;;;;18.93;17.07;;;6.80;99.90;;;;;;4881028;29;20623;-75
2023/04/07 03:56:40;;;;;;;20.83;19.20;;;6.80;99.90;;;;;;4891386;29;20583;-75
2023/04/07 03:59:06;;;;;;;20.30;18.63;;;6.80;99.90;;;;;;4882018;29;20211;-75
2023/04/07 04:01:32;;;;;;;20.90;19.33;;;6.80;99.90;;;;;;4877188;29;20279;-75
2023/04/07 04:03:58;;;;;;;19.93;18.43;;;6.80;99.90;;;;;;4879352;29;20283;-76
2023/04/07 04:06:24;;;;;;;17.20;15.63;;;6.80;99.90;;;;;;4878801;29;20208;-75
2023/04/07 04:08:49;;;;;;;20.97;19.33;;;6.80;99.90;;;;;;4877950;29;20192;-74
2023/04/07 04:11:15;;;;;;;17.47;15.97;;;6.80;99.90;;;;;;4860688;29;20192;-75
2023/04/07 04:13:41;;;;;;;19.60;17.90;;;6.70;99.90;;;;;;4877948;29;20244;-75
2023/04/07 04:16:07;;;;;;;21.70;19.40;;;6.70;99.90;;;;;;4876432;29;20231;-75
2023/04/07 04:18:32;;;;;;;17.83;15.20;;;6.70;99.90;;;;;;4877850;29;20192;-76
2023/04/07 04:20:58;;;;;;;18.20;16.50;;;6.70;99.90;;;;;;4876389;29;20180;-74
2023/04/07 04:23:24;;;;;;;18.90;17.37;;;6.70;99.90;;;;;;4877764;29;20677;-75
2023/04/07 04:25:50;;;;;;;18.90;17.27;;;6.70;99.90;;;;;;4860987;29;20583;-75
2023/04/07 04:28:16;;;;;;;19.83;17.93;;;6.60;99.90;;;;;;4861141;29;20184;-74
2023/04/07 04:30:42;;;;;;;18.10;16.50;;;6.60;99.90;;;;;;4891848;29;20535;-75
2023/04/07 04:33:07;;;;;;;18.00;16.33;;;6.60;99.90;;;;;;4879633;29;20195;-75
2023/04/07 04:35:33;;;;;;;20.37;18.63;;;6.70;99.90;;;;;;4879658;29;20676;-75
2023/04/07 04:37:59;;;;;;;18.57;16.97;;;6.60;99.90;;;;;;4896182;29;20191;-74
2023/04/07 04:40:25;;;;;;;19.70;17.87;;;6.60;99.90;;;;;;4875126;29;20219;-74
2023/04/07 04:42:50;;;;;;;16.67;15.13;;;6.50;99.90;;;;;;4876416;29;20744;-74
2023/04/07 04:45:16;;;;;;;15.40;13.83;;;6.50;99.90;;;;;;4860976;29;20187;-74
2023/04/07 04:47:42;;;;;;;15.87;14.30;;;6.40;99.90;;;;;;4876662;29;20196;-74
2023/04/07 04:50:09;;;;;;;15.70;14.00;;;6.40;99.90;;;;;;4878802;29;20191;-74
2023/04/07 04:52:34;;;;;;;17.53;15.73;;;6.40;99.90;;;;;;4895898;29;20187;-75
2023/04/07 04:55:00;;;;;;;17.63;15.30;;;6.40;99.90;;;;;;4895798;29;20275;-70
2023/04/07 04:57:26;;;;;;;16.80;14.00;;;6.50;99.90;;;;;;4886788;29;20291;-70
2023/04/07 04:59:52;;;;;;;17.23;15.63;;;6.50;99.90;;;;;;4891188;29;20263;-69
2023/04/07 05:02:17;;;;;;;17.03;15.43;;;6.50;99.90;;;;;;4878552;29;20183;-70
2023/04/07 05:04:43;;;;;;;18.97;16.97;;;6.50;99.90;;;;;;4894499;29;20267;-70
2023/04/07 05:07:09;;;;;;;17.80;16.03;;;6.50;99.90;;;;;;4895792;29;20208;-70
2023/04/07 05:09:35;;;;;;;18.10;16.27;;;6.50;99.90;;;;;;4877899;29;20193;-70
2023/04/07 05:12:01;;;;;;;17.87;16.27;;;6.50;99.90;;;;;;4878496;29;20187;-70
2023/04/07 05:14:27;;;;;;;18.30;16.37;;;6.60;99.90;;;;;;4900315;29;20205;-70
2023/04/07 05:16:53;;;;;;;19.20;17.43;;;6.60;99.90;;;;;;4913884;29;20257;-69
2023/04/07 05:19:19;;;;;;;16.30;14.60;;;6.60;99.90;;;;;;4905420;29;20223;-70
2023/04/07 05:21:45;;;;;;;17.27;14.77;;;6.60;99.90;;;;;;4895521;29;20656;-70
2023/04/07 05:24:11;;;;;;;16.70;15.10;;;6.60;99.90;;;;;;4878596;29;20214;-70
2023/04/07 05:26:37;;;;;;;15.67;14.07;;;6.60;99.90;;;;;;4878190;29;20204;-70
2023/04/07 05:29:02;;;;;;;17.50;15.50;;;6.70;99.90;;;;;;4894676;29;20188;-70
2023/04/07 05:31:28;;;;;;;15.70;14.07;;;6.60;99.90;;;;;;4895230;29;20752;-71
2023/04/07 05:33:54;;;;;;;15.27;13.67;;;6.70;99.90;;;;;;4878185;29;20246;-71
2023/04/07 05:36:20;;;;;;;15.60;13.20;;;6.60;99.90;;;;;;4895229;29;20576;-69
2023/04/07 05:38:45;;;;;;;16.13;14.27;;;6.60;99.90;;;;;;4895041;29;20206;-70
2023/04/07 05:41:11;;;;;;;16.10;14.60;;;6.80;99.90;;;;;;4895273;29;20238;-69
2023/04/07 05:43:37;;;;;;;18.07;14.67;;;6.80;99.90;;;;;;4895600;29;20180;-70
2023/04/07 05:46:03;;;;;;;16.10;13.40;;;6.80;99.90;;;;;;4895471;29;20547;-69
2023/04/07 05:48:29;;;;;;;15.63;14.03;;;6.80;99.90;;;;;;4894452;29;20282;-69
2023/04/07 05:50:54;;;;;;;17.03;13.47;;;6.80;99.90;;;;;;4878552;29;20203;-71
2023/04/07 05:53:21;;;;;;;18.53;14.63;;;6.80;99.90;;;;;;4878631;29;20190;-71
2023/04/07 05:55:46;;;;;;;16.30;14.70;;;6.80;99.90;;;;;;4878032;29;20211;-71
2023/04/07 05:58:12;;;;;;;16.97;14.73;;;6.80;99.90;;;;;;4895139;29;20184;-70
2023/04/07 06:00:40;;;;;;;18.13;16.40;;;6.90;99.90;;;;;;4894462;29;20207;-71
2023/04/07 06:03:06;;;;;;;19.23;15.27;;;7.00;99.90;;;;;;4894132;29;20184;-71
2023/04/07 06:05:31;;;;;;;15.50;13.90;;;7.00;99.90;;;;;;4877559;29;20743;-70
2023/04/07 06:07:57;;;;;;;17.33;15.37;;;7.10;99.90;;;;;;4878899;29;20188;-71
2023/04/07 06:10:23;;;;;;;22.77;16.40;;;7.00;99.90;;;;;;4893265;29;20191;-71
2023/04/07 06:12:49;;;;;;;16.50;14.73;;;7.00;99.90;;;;;;4893702;29;20665;-71
2023/04/07 06:15:15;;;;;;;18.20;16.33;;;7.00;99.90;;;;;;4878393;29;20187;-70
2023/04/07 06:17:40;;;;;;;18.97;15.20;;;7.00;99.90;;;;;;4894855;29;20314;-70
2023/04/07 06:20:07;;;;;;;17.03;14.77;;;7.10;99.90;;;;;;4894248;29;20215;-70
2023/04/07 06:22:33;;;;;;;16.73;15.13;;;7.20;99.90;;;;;;4897596;29;20184;-71
2023/04/07 06:24:58;;;;;;;16.20;12.73;;;7.20;99.90;;;;;;4898136;29;20195;-71
2023/04/07 06:27:25;;;;;;;19.07;15.27;;;7.30;99.90;;;;;;4881805;29;20200;-71
2023/04/07 06:29:51;;;;;;;17.80;15.83;;;7.30;99.90;;;;;;4881397;29;20192;-71
2023/04/07 06:32:17;;;;;;;20.23;18.20;;;7.40;99.90;;;;;;4898365;29;20195;-71
2023/04/07 06:34:43;;;;;;;22.03;19.87;;;7.40;99.90;;;;;;4881840;29;20206;-71
2023/04/07 06:37:09;;;;;;;21.00;19.00;;;7.40;99.90;;;;;;4898333;29;20775;-71
2023/04/07 06:39:35;;;;;;;21.40;19.40;;;7.40;99.90;;;;;;4877999;29;20214;-71
2023/04/07 06:42:01;;;;;;;20.37;18.40;;;7.40;99.90;;;;;;4885129;29;20692;-71
2023/04/07 06:44:27;;;;;;;20.60;18.90;;;7.50;99.90;;;;;;4897000;29;20183;-70
2023/04/07 06:46:54;;;;;;;19.43;17.53;;;7.50;99.90;;;;;;4897867;29;20231;-70
2023/04/07 06:49:20;;;;;;;16.47;14.83;;;7.60;99.90;;;;;;4897765;29;20717;-71
2023/04/07 06:51:46;;;;;;;15.80;14.10;;;7.70;99.90;;;;;;4898336;29;20239;-71
2023/04/07 06:54:12;;;;;;;15.70;14.10;;;7.80;99.90;;;;;;4897648;29;20184;-70
2023/04/07 06:56:42;;;;;;;14.37;12.87;;;7.90;99.90;;;;;;4898231;29;20218;-71
2023/04/07 06:59:08;;;;;;;16.50;14.00;;;7.90;99.90;;;;;;4909578;29;20217;-71
2023/04/07 07:01:34;;;;;;;17.47;15.00;;;8.00;99.90;;;;;;4916373;29;20266;-70
2023/04/07 07:04:00;;;;;;;17.97;15.23;;;8.00;99.90;;;;;;4902368;29;20736;-70
2023/04/07 07:06:26;;;;;;;18.57;14.63;;;8.10;99.90;;;;;;4898064;29;20207;-70
2023/04/07 07:08:53;;;;;;;16.67;14.03;;;8.30;99.90;;;;;;4881276;29;20184;-70
2023/04/07 07:11:19;;;;;;;18.50;14.63;;;8.40;99.90;;;;;;4897255;29;20658;-71
2023/04/07 07:13:46;;;;;;;18.60;14.90;;;8.50;99.90;;;;;;4897622;29;20191;-69
2023/04/07 07:16:12;;;;;;;17.67;15.27;;;8.70;99.90;;;;;;4897615;29;20223;-70
2023/04/07 07:18:39;;;;;;;24.13;21.70;;;8.80;99.90;;;;;;4880886;29;20188;-70
2023/04/07 07:21:05;;;;;;;23.50;21.20;;;8.80;99.90;;;;;;4880965;29;20665;-70
2023/04/07 07:23:30;;;;;;;26.27;24.07;;;8.80;99.90;;;;;;4877832;29;20176;-70
2023/04/07 07:25:56;;;;;;;22.33;20.30;;;8.90;99.90;;;;;;4878639;29;20209;-71
2023/04/07 07:28:22;;;;;;;17.43;15.73;;;9.00;99.90;;;;;;4878755;29;20683;-71
2023/04/07 07:30:48;;;;;;;18.57;16.67;;;9.20;99.90;;;;;;4862336;29;20271;-71
2023/04/07 07:33:14;;;;;;;16.73;12.73;;;9.30;99.90;;;;;;4885025;29;20183;-71
2023/04/07 07:35:40;;;;;;;13.37;12.00;;;9.60;99.90;;;;;;4897249;29;20207;-71
2023/04/07 07:38:06;;;;;;;28.10;25.87;;;9.80;99.90;;;;;;4897591;29;20324;-70
2023/04/07 07:40:32;;;;;;;66.80;62.67;;;9.90;99.90;;;;;;4896462;29;20247;-70
2023/04/07 07:42:59;;;;;;;39.93;36.93;;;10.10;99.90;;;;;;4897507;29;20513;-70
2023/04/07 07:45:25;;;;;;;20.17;18.53;;;10.10;99.90;;;;;;4897058;29;20191;-71
2023/04/07 07:47:51;;;;;;;26.23;24.20;;;10.10;99.90;;;;;;4897295;29;20187;-70
2023/04/07 07:50:17;;;;;;;21.60;19.83;;;10.10;99.90;;;;;;4897049;29;20560;-70
2023/04/07 07:52:43;;;;;;;20.33;18.60;;;10.20;99.90;;;;;;4897523;29;20186;-72
2023/04/07 07:55:10;;;;;;;17.23;15.70;;;10.20;99.90;;;;;;4897116;29;20626;-70
2023/04/07 07:57:36;;;;;;;15.67;14.27;;;10.40;99.90;;;;;;4897270;29;20629;-73
2023/04/07 08:00:03;;;;;;;14.53;13.10;;;10.60;99.90;;;;;;4896667;29;20230;-72
2023/04/07 08:02:31;;;;;;;24.20;21.97;;;11.00;99.90;;;;;;4879778;29;20621;-71
2023/04/07 08:04:57;;;;;;;29.73;27.60;;;11.60;99.90;;;;;;4880557;29;20247;-71
2023/04/07 08:07:23;;;;;;;13.60;12.30;;;12.10;99.90;;;;;;4897004;29;20199;-70
2023/04/07 08:09:49;;;;;;;14.33;12.93;;;12.00;99.90;;;;;;4879724;29;20192;-71
2023/04/07 08:12:15;;;;;;;13.83;12.43;;;11.70;99.90;;;;;;4897073;29;20247;-72
2023/04/07 08:14:41;;;;;;;12.83;11.63;;;11.50;99.90;;;;;;4896498;29;20199;-70
2023/04/07 08:17:06;;;;;;;14.77;13.37;;;11.50;99.90;;;;;;4895949;29;20216;-71
2023/04/07 08:19:32;;;;;;;13.70;12.07;;;11.50;99.90;;;;;;4879767;29;20764;-71
2023/04/07 08:21:58;;;;;;;13.83;12.53;;;11.70;99.90;;;;;;4896073;29;20187;-71
2023/04/07 08:24:24;;;;;;;15.00;13.47;;;11.70;99.90;;;;;;4878151;29;20664;-71
2023/04/07 08:26:49;;;;;;;15.13;13.83;;;11.90;99.90;;;;;;4895413;29;20203;-71
2023/04/07 08:29:15;;;;;;;17.17;15.47;;;11.90;99.90;;;;;;4896403;29;20235;-72
2023/04/07 08:31:41;;;;;;;18.40;16.70;;;12.10;99.90;;;;;;4878982;29;20187;-72
2023/04/07 08:34:07;;;;;;;11.10;9.33;;;12.30;99.90;;;;;;4896701;29;20283;-72
2023/04/07 08:36:33;;;;;;;11.40;10.27;;;12.60;99.90;;;;;;4896263;29;20287;-72
2023/04/07 08:39:00;;;;;;;12.80;11.57;;;13.10;99.90;;;;;;4896306;29;20249;-72
2023/04/07 08:41:47;;;;;;;13.60;12.37;;;13.40;99.90;;;;;;4880308;29;20184;-72
2023/04/07 08:44:14;;;;;;;16.27;14.90;;;13.60;99.90;;;;;;4866407;29;20537;-72
2023/04/07 08:46:40;;;;;;;12.93;11.77;;;13.60;99.90;;;;;;4861227;29;20205;-72
2023/04/07 08:49:12;;;;;;;17.83;16.43;;;14.10;99.90;;;;;;4877272;29;20203;-72
2023/04/07 08:51:46;;;;;;;32.93;30.83;;;14.40;99.90;;;;;;4877814;29;20631;-72
2023/04/07 08:54:14;;;;;;;9.60;8.60;;;14.90;99.90;;;;;;4890265;29;20188;-72
2023/04/07 08:56:42;;;;;;;8.80;8.00;;;15.00;99.90;;;;;;4895907;29;20259;-72
2023/04/07 08:59:10;;;;;;;9.40;8.70;;;15.30;99.90;;;;;;4895505;29;20219;-72
2023/04/07 09:01:36;;;;;;;10.27;9.47;;;15.90;99.90;;;;;;4896212;29;20264;-73
2023/04/07 09:04:03;;;;;;;10.80;7.83;;;16.40;99.90;;;;;;4896160;29;20218;-72
2023/04/07 09:06:30;;;;;;;9.20;8.40;;;16.30;99.90;;;;;;4879754;29;20680;-72
2023/04/07 09:09:00;;;;;;;11.00;8.93;;;16.20;99.90;;;;;;4896427;29;20214;-70
2023/04/07 09:11:27;;;;;;;10.67;9.53;;;16.30;99.90;;;;;;4896434;29;20192;-70
2023/04/07 09:13:54;;;;;;;11.40;10.40;;;16.30;99.90;;;;;;4876370;29;20180;-70
2023/04/07 09:16:22;;;;;;;10.87;10.10;;;16.30;99.90;;;;;;4891330;24;20258;-71
2023/04/07 09:18:48;;;;;;;11.20;10.40;;;16.30;99.90;;;;;;4914581;29;20221;-71
2023/04/07 09:21:14;;;;;;;12.33;11.33;;;16.10;99.90;;;;;;4915143;29;20215;-71
2023/04/07 09:23:41;;;;;;;11.67;10.67;;;16.00;99.90;;;;;;4915062;29;20234;-71
2023/04/07 09:26:25;;;;;;;11.83;10.83;;;16.00;99.90;;;;;;4911467;29;20200;-71
2023/04/07 09:29:00;;;;;;;11.23;10.53;;;15.90;99.90;;;;;;4896041;29;20653;-70
2023/04/07 09:31:49;;;;;;;11.90;11.10;;;15.80;99.90;;;;;;4879477;29;20190;-71
2023/04/07 09:34:30;;;;;;;12.67;11.60;;;15.60;99.90;;;;;;4895827;29;20184;-70
2023/04/07 09:36:56;;;;;;;10.40;9.50;;;15.20;99.90;;;;;;4896192;29;20213;-70
2023/04/07 09:39:23;;;;;;;11.77;10.77;;;14.40;99.90;;;;;;4878964;29;20648;-70
2023/04/07 09:41:48;;;;;;;9.93;8.93;;;14.20;99.90;;;;;;4896243;29;20211;-70
2023/04/07 09:44:14;;;;;;;8.67;7.97;;;14.00;99.90;;;;;;4895973;29;20211;-70
2023/04/07 09:46:57;;;;;;;9.67;8.97;;;14.00;99.90;;;;;;4879443;29;20259;-70
2023/04/07 09:49:24;;;;;;;8.53;7.73;;;14.30;99.90;;;;;;4879077;29;20664;-71
2023/04/07 09:52:06;;;;;;;10.00;9.07;;;14.30;99.90;;;;;;4896113;29;20278;-70
2023/04/07 09:54:34;;;;;;;7.97;7.30;;;14.50;99.90;;;;;;4895905;29;20198;-70
2023/04/07 09:57:02;;;;;;;9.00;8.20;;;14.90;99.90;;;;;;4883181;29;20206;-71
2023/04/07 09:59:29;;;;;;;9.77;9.00;;;15.00;99.90;;;;;;4899480;29;20246;-70
2023/04/07 10:01:55;;;;;;;10.23;9.43;;;14.70;99.90;;;;;;4883110;29;20179;-70
2023/04/07 10:04:22;;;;;;;9.43;8.73;;;14.80;99.90;;;;;;4899454;29;20270;-70
2023/04/07 10:06:48;;;;;;;9.23;8.53;;;14.50;99.90;;;;;;4899935;29;20214;-71
2023/04/07 10:09:13;;;;;;;8.83;8.23;;;14.50;99.90;;;;;;4899610;29;20184;-73
2023/04/07 10:11:41;;;;;;;10.60;9.80;;;14.60;99.90;;;;;;4899444;29;20208;-73
2023/04/07 10:14:09;;;;;;;13.27;10.97;;;14.90;99.90;;;;;;4879717;29;20196;-73
2023/04/07 10:16:39;;;;;;;14.27;12.73;;;15.30;99.90;;;;;;4899771;29;20226;-73
2023/04/07 10:19:06;;;;;;;12.90;11.77;;;15.60;99.90;;;;;;4900842;29;20217;-74
2023/04/07 10:21:38;;;;;;;10.17;9.27;;;15.60;99.90;;;;;;4902335;29;20731;-74
2023/04/07 10:24:29;;;;;;;11.70;10.67;;;15.60;99.90;;;;;;4909213;29;20258;-73
2023/04/07 10:26:58;;;;;;;13.60;12.47;;;15.80;99.90;;;;;;4898848;29;20295;-74
2023/04/07 10:29:26;;;;;;;12.47;11.30;;;16.20;99.90;;;;;;4898412;29;20187;-73
2023/04/07 10:31:52;;;;;;;14.13;12.97;;;16.50;99.90;;;;;;4905731;29;20258;-74
2023/04/07 10:34:47;;;;;;;12.60;11.57;;;16.40;99.90;;;;;;4906187;29;20188;-77
2023/04/07 10:37:16;;;;;;;13.20;12.00;;;16.60;99.90;;;;;;4898652;29;20212;-75
2023/04/07 10:39:42;;;;;;;12.70;11.80;;;16.90;99.90;;;;;;4898727;29;20307;-74
2023/04/07 10:42:45;;;;;;;9.73;9.00;;;17.10;99.90;;;;;;4897468;29;20232;-74
2023/04/07 10:45:12;;;;;;;12.43;11.27;;;16.90;99.90;;;;;;4838530;29;20195;-73
2023/04/07 10:47:58;;;;;;;15.37;14.27;;;16.30;99.90;;;;;;4887468;29;20211;-73
2023/04/07 10:50:24;;;;;;;13.17;12.27;;;15.50;99.90;;;;;;4875068;29;20198;-72
2023/04/07 10:53:11;;;;;;;14.20;13.00;;;15.20;99.90;;;;;;4898719;29;20652;-73
2023/04/07 10:55:44;;;;;;;13.90;12.80;;;15.40;99.90;;;;;;4897031;29;20184;-72
2023/04/07 10:58:24;;;;;;;14.67;13.57;;;15.40;99.90;;;;;;4897928;29;20184;-73
2023/04/07 11:00:59;;;;;;;13.53;12.53;;;15.60;99.90;;;;;;4897137;29;20318;-71
2023/04/07 11:03:27;;;;;;;14.60;13.47;;;16.00;99.90;;;;;;4897834;29;20841;-73
2023/04/07 11:06:10;;;;;;;14.27;13.07;;;15.70;99.90;;;;;;4897768;29;20297;-72
2023/04/07 11:08:38;;;;;;;14.73;13.37;;;15.60;99.90;;;;;;4878989;29;20188;-76
2023/04/07 11:11:08;;;;;;;15.50;14.10;;;15.70;99.90;;;;;;4879293;29;20211;-74
2023/04/07 11:13:47;;;;;;;14.33;13.23;;;15.90;99.90;;;;;;4883292;29;20180;-76
2023/04/07 11:16:15;;;;;;;15.93;14.73;;;16.20;99.90;;;;;;4896479;29;20247;-74
2023/04/07 11:18:41;;;;;;;14.97;13.87;;;16.20;99.90;;;;;;4896303;29;20605;-76
2023/04/07 11:21:08;;;;;;;15.07;13.77;;;16.30;99.90;;;;;;4898361;29;20219;-77
2023/04/07 11:23:37;;;;;;;13.20;12.20;;;16.50;99.90;;;;;;4899238;29;20315;-77
2023/04/07 11:26:03;;;;;;;12.77;11.97;;;16.50;99.90;;;;;;4897899;29;20215;-76
2023/04/07 11:28:30;;;;;;;15.17;14.27;;;16.20;99.90;;;;;;4881010;29;20184;-76
2023/04/07 11:30:57;;;;;;;14.33;13.23;;;15.80;99.90;;;;;;4896549;29;20211;-76
2023/04/07 11:33:28;;;;;;;14.57;13.67;;;15.90;99.90;;;;;;4897858;29;20194;-74
2023/04/07 11:35:57;;;;;;;13.33;12.37;;;16.20;99.90;;;;;;4896990;29;20223;-76
2023/04/07 11:38:28;;;;;;;10.60;9.60;;;16.40;99.90;;;;;;4895672;29;20187;-76
2023/04/07 11:40:55;;;;;;;7.97;7.37;;;16.80;99.90;;;;;;4897996;29;20226;-76
2023/04/07 11:43:25;;;;;;;8.87;6.67;;;17.40;99.90;;;;;;4896254;29;20657;-78
2023/04/07 11:46:11;;;;;;;10.90;9.93;;;17.60;99.90;;;;;;4899828;29;20869;-78
2023/04/07 11:48:39;;;;;;;10.87;9.47;;;17.40;99.30;;;;;;4897393;29;20183;-75
2023/04/07 11:51:06;;;;;;;10.53;9.73;;;17.60;99.10;;;;;;4896927;29;20190;-75
2023/04/07 11:53:34;;;;;;;10.00;8.73;;;17.70;99.70;;;;;;4879536;29;20330;-75
2023/04/07 11:56:02;;;;;;;8.93;8.13;;;17.90;97.70;;;;;;4897773;29;20294;-74
2023/04/07 11:58:28;;;;;;;14.27;13.13;;;17.70;98.10;;;;;;4898898;29;20192;-75
2023/04/07 12:00:55;;;;;;;11.03;10.13;;;17.10;99.70;;;;;;4896856;29;20221;-75
2023/04/07 12:03:22;;;;;;;8.23;7.43;;;17.10;98.30;;;;;;4896868;29;20190;-75
2023/04/07 12:05:47;;;;;;;7.47;6.60;;;16.80;99.20;;;;;;4897046;29;20243;-76
2023/04/07 12:08:15;;;;;;;8.80;7.27;;;16.90;99.90;;;;;;4897501;29;20183;-75
2023/04/07 12:10:41;;;;;;;11.53;10.53;;;17.10;98.90;;;;;;4896882;29;20222;-74
2023/04/07 12:13:08;;;;;;;12.02;10.80;;;17.30;98.30;;;;;;4897213;29;20199;-74
2023/04/07 12:15:36;;;;;;;12.48;11.45;;;17.40;98.40;;;;;;4882681;29;20632;-73
2023/04/07 12:18:02;;;;;;;9.50;8.60;;;17.40;98.10;;;;;;4912696;29;20220;-75
2023/04/07 12:20:28;;;;;;;11.13;10.20;;;17.10;97.30;;;;;;4896630;29;20241;-76
2023/04/07 12:22:54;;;;;;;12.27;11.07;;;16.70;98.50;;;;;;4896930;29;20210;-74
2023/04/07 12:25:20;;;;;;;11.00;10.00;;;16.80;99.40;;;;;;4896764;29;20857;-74
2023/04/07 12:27:45;;;;;;;12.40;11.07;;;16.90;97.80;;;;;;4896533;29;20212;-75
2023/04/07 12:30:12;;;;;;;11.40;10.60;;;16.90;98.20;;;;;;4896156;29;20198;-75
2023/04/07 12:32:38;;;;;;;13.00;11.90;;;17.00;99.20;;;;;;4896418;29;20188;-75
2023/04/07 12:35:04;;;;;;;11.07;10.37;;;17.10;98.80;;;;;;4895311;29;20724;-74
2023/04/07 12:37:31;;;;;;;12.80;11.70;;;17.20;97.70;;;;;;4896565;29;20207;-74
2023/04/07 12:39:57;;;;;;;10.73;9.77;;;17.60;98.80;;;;;;4894840;29;20302;-74
2023/04/07 12:42:23;;;;;;;10.40;8.90;;;17.60;98.30;;;;;;4879824;29;20536;-74
2023/04/07 12:44:49;;;;;;;6.78;6.18;;;17.70;98.30;;;;;;4896262;29;20186;-74
2023/04/07 12:47:15;;;;;;;8.07;6.07;;;18.00;96.70;;;;;;4879397;29;20303;-75
2023/04/07 12:49:41;;;;;;;6.93;6.27;;;17.80;96.80;;;;;;4879308;29;20601;-74
2023/04/07 12:52:07;;;;;;;6.07;5.67;;;17.50;97.30;;;;;;4896676;29;20286;-74
2023/04/07 12:54:33;;;;;;;6.30;5.90;;;17.60;97.10;;;;;;4895686;29;20188;-75
2023/04/07 12:56:58;;;;;;;7.30;6.22;;;17.80;96.90;;;;;;4894930;29;20283;-74
2023/04/07 12:59:25;;;;;;;8.03;7.27;;;17.50;96.50;;;;;;4894887;29;20566;-75
2023/04/07 13:01:51;;;;;;;12.15;10.48;;;17.50;97.10;;;;;;4897597;29;20712;-73
2023/04/07 13:04:17;;;;;;;10.13;9.23;;;17.60;96.30;;;;;;4896644;29;20211;-74
2023/04/07 13:06:43;;;;;;;7.20;6.60;;;17.90;96.90;;;;;;4879752;29;20230;-74
2023/04/07 13:09:09;;;;;;;6.88;6.45;;;18.00;95.90;;;;;;4868618;29;20203;-73
2023/04/07 13:11:35;;;;;;;6.83;6.20;;;18.30;96.50;;;;;;4892862;29;20188;-72
2023/04/07 13:14:01;;;;;;;6.00;5.47;;;18.50;96.00;;;;;;4898180;29;20267;-74
2023/04/07 13:16:27;;;;;;;6.82;6.32;;;18.40;95.60;;;;;;4914126;29;20757;-70
2023/04/07 13:18:53;;;;;;;6.65;6.07;;;18.20;95.80;;;;;;4894974;29;20191;-69
2023/04/07 13:21:19;;;;;;;5.47;5.13;;;17.90;95.30;;;;;;4895758;29;20180;-70
2023/04/07 13:23:45;;;;;;;6.50;6.00;;;17.60;94.90;;;;;;4895310;29;20235;-72
2023/04/07 13:26:11;;;;;;;6.88;6.28;;;17.00;95.80;;;;;;4897813;29;20208;-73
2023/04/07 13:28:36;;;;;;;8.30;7.53;;;16.70;97.40;;;;;;4896330;29;20243;-73
2023/04/07 13:31:02;;;;;;;11.80;10.10;;;16.30;97.70;;;;;;4893701;29;20191;-74
2023/04/07 13:33:28;;;;;;;8.57;7.87;;;16.00;99.00;;;;;;4877750;29;20633;-74
2023/04/07 13:35:54;;;;;;;6.47;5.97;;;15.60;99.00;;;;;;4877852;29;20194;-74
2023/04/07 13:38:20;;;;;;;7.83;6.63;;;15.40;99.20;;;;;;4893793;29;20278;-74
2023/04/07 13:40:48;;;;;;;21.57;20.20;;;15.00;99.90;;;;;;4895349;29;20215;-73
2023/04/07 13:43:14;;;;;;;28.27;26.33;;;14.60;99.90;;;;;;4895755;29;20186;-74
2023/04/07 13:45:40;;;;;;;27.53;25.57;;;14.40;99.90;;;;;;4895761;29;20222;-75
2023/04/07 13:48:06;;;;;;;19.20;17.37;;;14.20;99.90;;;;;;4879068;29;20199;-75
2023/04/07 13:50:35;;;;;;;11.70;10.33;;;14.00;99.90;;;;;;4878383;29;20634;-75
2023/04/07 13:53:01;;;;;;;9.47;8.87;;;14.00;99.90;;;;;;4895481;29;20195;-75
2023/04/07 13:55:27;;;;;;;8.73;8.10;;;14.00;99.90;;;;;;4895838;29;20187;-74
2023/04/07 13:57:52;;;;;;;8.97;8.07;;;13.80;99.90;;;;;;4878854;29;20211;-74
2023/04/07 14:00:19;;;;;;;8.57;8.07;;;13.80;99.90;;;;;;4879141;29;20216;-74
2023/04/07 14:02:46;;;;;;;9.00;8.27;;;13.90;99.90;;;;;;4896656;29;20741;-74
2023/04/07 14:05:12;;;;;;;8.80;7.97;;;14.00;99.90;;;;;;4880506;29;20267;-74
2023/04/07 14:07:37;;;;;;;8.73;8.20;;;14.10;99.90;;;;;;4898221;29;20687;-74
2023/04/07 14:10:03;;;;;;;8.60;8.10;;;14.20;99.90;;;;;;4904025;29;20195;-74
2023/04/07 14:12:29;;;;;;;8.47;8.07;;;14.20;99.90;;;;;;4897203;29;20188;-73
2023/04/07 14:14:55;;;;;;;9.40;8.63;;;14.30;99.90;;;;;;4882056;29;20195;-74
2023/04/07 14:17:21;;;;;;;10.83;10.17;;;14.30;99.90;;;;;;4879358;29;20254;-75
2023/04/07 14:19:47;;;;;;;11.27;9.03;;;14.30;99.90;;;;;;4878764;29;20239;-74
2023/04/07 14:22:13;;;;;;;9.27;8.40;;;14.20;99.90;;;;;;4896027;29;20278;-74
2023/04/07 14:24:39;;;;;;;8.87;7.80;;;14.30;99.90;;;;;;4895881;29;20560;-74
2023/04/07 14:27:05;;;;;;;9.00;8.50;;;14.30;99.90;;;;;;4895072;29;20207;-74
2023/04/07 14:29:31;;;;;;;10.70;10.00;;;14.20;99.90;;;;;;4895219;29;20270;-74
2023/04/07 14:31:57;;;;;;;9.57;9.07;;;14.20;99.90;;;;;;4896100;29;20652;-75
2023/04/07 14:34:22;;;;;;;9.37;8.70;;;14.00;99.90;;;;;;4895604;29;20570;-74
2023/04/07 14:36:57;;;;;;;9.27;8.67;;;14.20;99.90;;;;;;4878645;29;20262;-74
2023/04/07 14:39:24;;;;;;;8.93;8.33;;;14.30;99.90;;;;;;4894817;29;20547;-74
2023/04/07 14:41:51;;;;;;;8.77;8.17;;;14.40;99.90;;;;;;4895685;29;20231;-74
2023/04/07 14:44:16;;;;;;;9.23;8.53;;;14.50;99.90;;;;;;4881963;29;20187;-75
2023/04/07 14:46:42;;;;;;;9.73;8.90;;;14.40;99.90;;;;;;4898541;29;20282;-76
2023/04/07 14:49:09;;;;;;;11.10;10.40;;;14.60;99.90;;;;;;4881097;29;20590;-76
2023/04/07 14:51:34;;;;;;;13.27;11.97;;;14.70;99.90;;;;;;4881928;29;20556;-75
2023/04/07 14:54:01;;;;;;;11.73;10.90;;;14.80;99.90;;;;;;4898931;29;20180;-74
2023/04/07 14:56:27;;;;;;;12.77;11.50;;;14.90;99.90;;;;;;4882094;29;20239;-74
2023/04/07 14:58:52;;;;;;;15.23;14.33;;;15.00;99.90;;;;;;4898640;29;20207;-74
2023/04/07 15:01:18;;;;;;;16.93;15.87;;;15.10;99.90;;;;;;4898492;29;20286;-74
2023/04/07 15:03:45;;;;;;;19.40;18.20;;;15.20;99.90;;;;;;4898801;29;20636;-74
2023/04/07 15:06:12;;;;;;;20.60;19.00;;;15.40;99.90;;;;;;4898655;29;20692;-74
2023/04/07 15:08:39;;;;;;;19.17;17.97;;;15.40;99.90;;;;;;4898877;29;20184;-74
2023/04/07 15:11:08;;;;;;;20.03;18.73;;;15.40;99.90;;;;;;4882418;29;20274;-74
2023/04/07 15:13:35;;;;;;;20.63;19.23;;;15.60;99.90;;;;;;4898645;29;20192;-74
2023/04/07 15:18:39;;;;;;;18.47;17.37;;;15.50;99.90;;;;;;4877373;29;20271;-71
2023/04/07 15:21:06;;;;;;;21.03;19.50;;;15.30;99.90;;;;;;4880602;29;20219;-71
2023/04/07 15:23:32;;;;;;;20.60;19.50;;;15.40;99.90;;;;;;4878595;29;20232;-72
2023/04/07 15:25:58;;;;;;;19.90;18.70;;;15.40;99.90;;;;;;4879567;29;20188;-72
2023/04/07 15:28:24;;;;;;;22.47;21.23;;;15.30;99.90;;;;;;4879149;29;20211;-72
2023/04/07 15:30:50;;;;;;;20.53;19.23;;;15.10;99.90;;;;;;4879053;29;20271;-72
2023/04/07 15:33:16;;;;;;;17.50;16.50;;;15.10;99.90;;;;;;4879531;29;20252;-72
2023/04/07 15:35:43;;;;;;;21.83;20.47;;;15.20;99.90;;;;;;4879547;29;20188;-71
2023/04/07 15:38:09;;;;;;;19.07;17.97;;;15.30;99.90;;;;;;4893953;29;20208;-71
2023/04/07 15:40:38;;;;;;;20.47;19.37;;;15.30;99.90;;;;;;4878710;29;20263;-72